Terminal Aerodrome Forecast
Issued by NWS

Home | Current Version | Previous Version | Graphics & Text | Print | Product List | Glossary On
Versions: 1 2 3 4 5 6 7 8 9 10 11 12 13 14 15 16 17 18 19 20
419
FTUS43 KMPX 220914 AAA
TAFAXN
TAF AMD
KAXN 220914Z 2209/2306 VRB04KT 6SM BR FEW008 BKN020
     FM221100 VRB04KT 1SM BR BKN006
     FM221600 17006KT P6SM BKN025
     FM221700 14005KT P6SM BKN035=

USA.gov is the U.S. government's official web portal to all federal, state and local government web resources and services.